Time;durP1;ratioP1;P1;durP2;ratioP2;P2;SDS_P1;SDS_P2;PMS_P1;PMS_P2;Temp;Humidity;BMP_temperature;BMP_pressure;BME280_temperature;BME280_humidity;BME280_pressure;Samples;Min_cycle;Max_cycle;Signal;HPM_P1;HPM_P2
2021/12/27 00:00:37;;;;;;;55.43;38.60;;;;;;;1.35;100.00;100380.03;5074932;28;20426;-74
2021/12/27 00:03:03;;;;;;;66.87;39.70;;;;;;;1.13;100.00;100320.88;5056891;28;20073;-74
2021/12/27 00:05:29;;;;;;;55.87;37.43;;;;;;;1.50;100.00;100363.31;5074778;28;20028;-74
2021/12/27 00:07:55;;;;;;;60.37;37.60;;;;;;;1.59;100.00;100360.53;5074708;28;20398;-74
2021/12/27 00:10:24;;;;;;;57.13;36.80;;;;;;;1.40;100.00;100361.78;5022738;28;20040;-74
2021/12/27 00:12:50;;;;;;;55.87;37.43;;;;;;;1.51;100.00;100382.00;5074562;28;20104;-74
2021/12/27 00:15:16;;;;;;;55.17;38.13;;;;;;;1.31;100.00;100340.78;5074973;28;20029;-74
2021/12/27 00:17:43;;;;;;;52.43;34.70;;;;;;;1.66;100.00;100393.28;5074517;28;20044;-74
2021/12/27 00:20:11;;;;;;;58.13;38.70;;;;;;;1.70;100.00;100402.91;5074510;28;20478;-74
2021/12/27 00:22:38;;;;;;;60.63;39.20;;;;;;;1.68;100.00;100385.75;5074549;28;20068;-74
2021/12/27 00:25:07;;;;;;;60.80;40.30;;;;;;;1.84;100.00;100408.09;5074322;28;20474;-74
2021/12/27 00:27:33;;;;;;;56.53;38.65;;;;;;;1.60;100.00;100358.09;5074178;28;20517;-74
2021/12/27 00:29:58;;;;;;;55.27;35.77;;;;;;;1.64;100.00;100379.56;5074389;28;20036;-74
2021/12/27 00:32:23;;;;;;;55.17;35.63;;;;;;;1.43;100.00;100399.28;5074290;28;20094;-74
2021/12/27 00:34:49;;;;;;;48.63;33.77;;;;;;;1.54;100.00;100403.47;5074488;28;20017;-74
2021/12/27 00:37:15;;;;;;;47.13;33.00;;;;;;;1.38;100.00;100400.59;5022417;28;20040;-75
2021/12/27 00:39:40;;;;;;;52.33;33.97;;;;;;;1.22;100.00;100380.78;5074244;28;20017;-74
2021/12/27 00:42:06;;;;;;;52.43;34.53;;;;;;;1.00;100.00;100375.78;5074083;28;20104;-74
2021/12/27 00:44:32;;;;;;;60.73;37.50;;;;;;;0.70;100.00;100345.69;5073968;28;20036;-74
2021/12/27 00:46:59;;;;;;;57.30;37.37;;;;;;;0.91;100.00;100397.22;5073763;28;20394;-74
2021/12/27 00:49:24;;;;;;;61.63;39.07;;;;;;;1.00;100.00;100401.22;5074054;28;20024;-74
2021/12/27 00:51:50;;;;;;;61.33;38.63;;;;;;;0.98;100.00;100387.53;5074105;28;20119;-74
2021/12/27 00:54:16;;;;;;;58.00;38.60;;;;;;;0.74;100.00;100379.84;5073958;28;20151;-74
2021/12/27 00:56:42;;;;;;;66.53;40.23;;;;;;;0.92;100.00;100388.84;5074063;28;20055;-74
2021/12/27 00:59:07;;;;;;;58.53;38.83;;;;;;;0.96;100.00;100388.28;5073847;28;20028;-74
2021/12/27 01:01:33;;;;;;;59.03;39.83;;;;;;;0.70;100.00;100345.69;5054961;28;20101;-74
2021/12/27 01:03:59;;;;;;;57.80;38.00;;;;;;;0.91;100.00;100394.69;5073823;28;20031;-74
2021/12/27 01:06:25;;;;;;;57.77;38.80;;;;;;;0.93;100.00;100374.47;5073558;28;20483;-74
2021/12/27 01:08:52;;;;;;;62.33;38.80;;;;;;;1.11;100.00;100392.75;5072250;28;20040;-74
2021/12/27 01:14:00;;;;;;;59.35;37.15;;;;;;;1.11;100.00;100401.25;5073550;28;20485;-74
2021/12/27 01:16:26;;;;;;;60.05;38.47;;;;;;;0.94;100.00;100348.28;5073634;28;20028;-74
2021/12/27 01:18:52;;;;;;;58.60;39.60;;;;;;;1.23;100.00;100385.97;5073649;28;20055;-74
2021/12/27 01:21:20;;;;;;;64.43;39.33;;;;;;;1.31;100.00;100383.13;5073245;28;20102;-74
2021/12/27 01:23:47;;;;;;;61.50;39.23;;;;;;;1.24;100.00;100380.13;5073509;28;20035;-74
2021/12/27 01:26:13;;;;;;;65.60;41.50;;;;;;;1.15;100.00;100369.31;5073289;28;20032;-74
2021/12/27 01:28:40;;;;;;;64.63;40.80;;;;;;;1.24;100.00;100380.13;5073021;28;20024;-74
2021/12/27 01:31:06;;;;;;;58.67;38.67;;;;;;;1.31;100.00;100378.03;5073317;28;20028;-74
2021/12/27 01:33:32;;;;;;;55.47;37.13;;;;;;;1.30;100.00;100359.34;5073343;28;20028;-74
2021/12/27 01:35:58;;;;;;;54.67;37.93;;;;;;;1.38;100.00;100370.94;5073163;28;20032;-74
2021/12/27 01:38:24;;;;;;;55.30;37.37;;;;;;;1.44;100.00;100371.38;5073144;28;20464;-74
2021/12/27 01:40:53;;;;;;;56.03;37.30;;;;;;;1.52;100.00;100371.06;5072962;28;20029;-74
2021/12/27 01:43:22;;;;;;;50.42;35.17;;;;;;;1.54;100.00;100360.22;5072951;28;20115;-74
2021/12/27 01:45:53;;;;;;;55.40;36.88;;;;;;;1.61;100.00;100356.47;5072851;28;20033;-75
2021/12/27 01:48:21;;;;;;;52.53;33.23;;;;;;;1.46;100.00;100358.81;5072919;28;20078;-74
2021/12/27 01:50:48;;;;;;;49.17;34.47;;;;;;;1.39;100.00;100354.03;5072841;28;20440;-74
2021/12/27 01:53:15;;;;;;;52.37;34.67;;;;;;;1.34;100.00;100338.44;5072875;28;20422;-74
2021/12/27 01:55:41;;;;;;;49.07;34.40;;;;;;;1.37;100.00;100328.50;5072477;28;20474;-74
2021/12/27 01:58:07;;;;;;;48.30;35.07;;;;;;;1.35;100.00;100332.59;5070345;28;20033;-74
2021/12/27 02:00:39;;;;;;;52.33;34.60;;;;;;;1.33;100.00;100298.50;5072684;28;20028;-74
2021/12/27 02:03:04;;;;;;;50.07;34.40;;;;;;;1.33;100.00;100293.44;5073022;28;20060;-74
2021/12/27 02:05:31;;;;;;;55.37;36.93;;;;;;;1.32;100.00;100308.59;5072482;28;20466;-74
2021/12/27 02:07:59;;;;;;;53.43;36.90;;;;;;;1.33;100.00;100313.78;5072443;28;20047;-74
2021/12/27 02:10:24;;;;;;;51.83;34.10;;;;;;;1.18;100.00;100348.28;5072398;28;20028;-74
2021/12/27 02:12:51;;;;;;;62.20;39.10;;;;;;;1.10;100.00;100343.53;5072805;28;20492;-74
2021/12/27 02:15:17;;;;;;;60.53;41.57;;;;;;;0.78;100.00;100293.75;5072392;28;20051;-74
2021/12/27 02:17:43;;;;;;;71.50;44.87;;;;;;;1.06;100.00;100344.09;5072372;28;20119;-74
2021/12/27 02:20:22;;;;;;;67.83;43.10;;;;;;;0.87;100.00;100351.13;5071866;28;20024;-74
2021/12/27 02:22:49;;;;;;;60.67;39.92;;;;;;;0.74;100.00;100340.06;5072080;28;20029;-74
2021/12/27 02:25:16;;;;;;;67.20;39.90;;;;;;;0.58;100.00;100372.72;5072291;28;20124;-74
2021/12/27 02:27:43;;;;;;;60.60;40.40;;;;;;;0.52;100.00;100349.41;5072095;28;20075;-74
2021/12/27 02:30:13;;;;;;;65.23;41.87;;;;;;;0.72;100.00;100350.88;5072087;28;20060;-74
2021/12/27 02:32:44;;;;;;;;;;;;;;;0.86;100.00;100362.06;5072376;28;20552;-74
2021/12/27 02:35:14;;;;;;;69.97;42.17;;;;;;;0.78;100.00;100347.13;5071984;28;19962;-74
2021/12/27 02:37:39;;;;;;;65.50;41.70;;;;;;;0.95;100.00;100357.69;5071842;28;20478;-74
2021/12/27 02:40:05;;;;;;;74.47;45.07;;;;;;;0.98;100.00;100362.97;5071999;28;20108;-74
2021/12/27 02:42:30;;;;;;;68.17;43.60;;;;;;;0.61;100.00;100356.06;5071928;28;20106;-74
2021/12/27 02:44:56;;;;;;;70.33;43.07;;;;;;;0.71;100.00;100347.47;5071720;28;20449;-74
2021/12/27 02:47:21;;;;;;;74.00;44.77;;;;;;;0.83;100.00;100341.53;5071715;28;20024;-74
2021/12/27 02:49:47;;;;;;;68.10;43.93;;;;;;;0.90;100.00;100324.28;5052818;28;20041;-74
2021/12/27 02:52:12;;;;;;;71.07;43.00;;;;;;;1.08;100.00;100324.72;5071742;28;20017;-74
2021/12/27 02:54:41;;;;;;;75.00;45.37;;;;;;;1.18;100.00;100325.41;5071566;28;20048;-74
2021/12/27 02:57:09;;;;;;;70.03;45.63;;;;;;;1.24;100.00;100326.72;5071503;28;20495;-74
2021/12/27 02:59:35;;;;;;;72.23;45.13;;;;;;;1.29;100.00;100335.56;5071681;28;20064;-74
2021/12/27 03:02:00;;;;;;;82.00;47.47;;;;;;;1.15;100.00;100292.13;5071660;28;20059;-74
2021/12/27 03:04:27;;;;;;;73.87;47.07;;;;;;;1.40;100.00;100310.91;5071332;28;20538;-74
2021/12/27 03:06:52;;;;;;;100.97;59.50;;;;;;;1.34;100.00;100332.47;5071483;28;20032;-74
2021/12/27 03:09:18;;;;;;;105.97;60.93;;;;;;;1.40;100.00;100323.63;5071519;28;20424;-74
2021/12/27 03:11:43;;;;;;;98.00;59.50;;;;;;;1.42;100.00;100329.72;5071381;28;20025;-74
2021/12/27 03:14:09;;;;;;;89.63;50.67;;;;;;;1.35;100.00;100339.34;5071349;28;20037;-74
2021/12/27 03:16:34;;;;;;;74.87;47.77;;;;;;;0.99;100.00;100272.38;5071240;28;20183;-74
2021/12/27 03:19:00;;;;;;;76.93;51.00;;;;;;;1.27;100.00;100331.13;5071241;28;20028;-74
2021/12/27 03:21:26;;;;;;;86.97;53.13;;;;;;;0.86;100.00;100285.81;5071075;28;20055;-74
2021/12/27 03:23:52;;;;;;;82.23;52.17;;;;;;;1.01;100.00;100320.00;5071234;28;20047;-74
2021/12/27 03:26:18;;;;;;;80.67;52.23;;;;;;;0.93;100.00;100316.00;5071245;28;20479;-74
2021/12/27 03:28:44;;;;;;;87.90;54.57;;;;;;;0.79;100.00;100269.25;5035545;28;20124;-74
2021/12/27 03:31:09;;;;;;;78.27;49.93;;;;;;;1.07;100.00;100322.97;5070545;28;20111;-74
2021/12/27 03:33:35;;;;;;;76.73;48.13;;;;;;;0.91;100.00;100284.50;5035436;28;20028;-74
2021/12/27 03:36:03;;;;;;;75.00;47.33;;;;;;;0.84;100.00;100308.59;5071154;28;20090;-74
2021/12/27 03:38:38;;;;;;;75.13;47.80;;;;;;;0.81;100.00;100313.47;5069178;28;20047;-74
2021/12/27 03:41:06;;;;;;;73.27;49.47;;;;;;;0.93;100.00;100306.69;5033109;28;20025;-74
2021/12/27 03:43:31;;;;;;;77.83;48.33;;;;;;;0.75;100.00;100255.44;5051028;28;20052;-74
2021/12/27 03:45:57;;;;;;;79.73;50.50;;;;;;;0.61;100.00;100261.16;5050896;28;20079;-74
2021/12/27 03:48:22;;;;;;;79.53;49.40;;;;;;;0.95;100.00;100296.66;5050575;28;20028;-74
2021/12/27 03:50:48;;;;;;;79.33;49.83;;;;;;;1.10;100.00;100291.81;5033093;28;20039;-74
2021/12/27 03:53:13;;;;;;;79.53;50.47;;;;;;;1.24;100.00;100310.59;5050703;28;20521;-74
2021/12/27 03:55:39;;;;;;;81.50;48.07;;;;;;;1.27;100.00;100304.06;5050902;28;20029;-74
2021/12/27 03:58:10;;;;;;;83.23;50.13;;;;;;;1.15;100.00;100303.19;5050814;28;20773;-74
2021/12/27 04:03:33;;;;;;;85.20;54.47;;;;;;;0.93;100.00;100309.25;5008757;28;20550;-74
2021/12/27 04:05:58;;;;;;;86.07;51.17;;;;;;;0.59;100.00;100252.56;5008851;28;20091;-74
2021/12/27 04:08:24;;;;;;;88.77;53.00;;;;;;;0.93;100.00;100308.38;5008737;28;20042;-74
2021/12/27 04:10:50;;;;;;;73.67;47.90;;;;;;;0.76;100.00;100281.72;5008853;28;20037;-74
2021/12/27 04:13:21;;;;;;;84.17;52.43;;;;;;;0.93;100.00;100304.16;5008561;28;20049;-74
2021/12/27 04:15:47;;;;;;;79.70;48.33;;;;;;;1.00;100.00;100327.47;5008749;28;20559;-74
2021/12/27 04:18:12;;;;;;;76.40;45.67;;;;;;;0.64;100.00;100277.50;5008686;28;20025;-74
2021/12/27 04:20:38;;;;;;;81.97;49.87;;;;;;;0.71;100.00;100327.16;5008678;28;20076;-74
2021/12/27 04:23:04;;;;;;;74.97;47.90;;;;;;;0.72;100.00;100315.31;5008738;28;20037;-74
2021/12/27 04:25:29;;;;;;;86.97;50.73;;;;;;;0.71;100.00;100311.00;5008635;28;20671;-74
2021/12/27 04:27:55;;;;;;;87.93;52.80;;;;;;;0.84;100.00;100313.69;5008503;28;20042;-74
2021/12/27 04:30:21;;;;;;;90.10;55.17;;;;;;;0.78;100.00;100297.97;5008623;28;20037;-74
2021/12/27 04:32:49;;;;;;;86.17;50.83;;;;;;;0.93;100.00;100313.47;5008509;28;20042;-74
2021/12/27 04:35:16;;;;;;;86.87;49.63;;;;;;;0.94;100.00;100321.19;5008555;28;20476;-74
2021/12/27 04:37:42;;;;;;;92.60;49.80;;;;;;;0.73;100.00;100256.97;5008611;28;20030;-74
2021/12/27 04:40:10;;;;;;;63.47;44.27;;;;;;;1.09;100.00;100296.00;5032792;28;20570;-74
2021/12/27 04:42:38;;;;;;;72.97;45.80;;;;;;;1.06;100.00;100290.69;5051008;28;20404;-74
2021/12/27 04:45:06;;;;;;;69.57;44.80;;;;;;;0.95;100.00;100286.50;5054160;28;20036;-74
2021/12/27 04:47:31;;;;;;;67.97;43.43;;;;;;;0.91;100.00;100284.50;5053910;28;20564;-74
2021/12/27 04:49:56;;;;;;;69.03;44.90;;;;;;;0.96;100.00;100295.91;5054055;28;20124;-74
2021/12/27 04:52:22;;;;;;;71.87;47.33;;;;;;;1.00;100.00;100305.50;5053867;28;20032;-74
2021/12/27 04:54:47;;;;;;;67.80;45.73;;;;;;;0.96;100.00;100304.41;5053860;28;20056;-74
2021/12/27 04:57:13;;;;;;;63.90;43.63;;;;;;;1.12;100.00;100314.03;5054062;28;20179;-74
2021/12/27 04:59:39;;;;;;;62.20;43.33;;;;;;;1.23;100.00;100337.66;5053833;28;20044;-74
2021/12/27 05:02:04;;;;;;;68.30;43.73;;;;;;;1.06;100.00;100341.53;5053911;28;20505;-74
2021/12/27 05:04:30;;;;;;;69.20;44.47;;;;;;;1.00;100.00;100332.56;5053817;28;20021;-74
2021/12/27 05:06:56;;;;;;;61.40;41.87;;;;;;;0.19;100.00;100212.41;5053579;28;20396;-74
2021/12/27 05:09:22;;;;;;;71.90;45.63;;;;;;;0.80;100.00;100326.94;5053828;28;20036;-75
2021/12/27 05:11:47;;;;;;;65.10;44.33;;;;;;;0.77;100.00;100322.50;5053793;28;20044;-74
2021/12/27 05:14:13;;;;;;;71.53;45.00;;;;;;;0.92;100.00;100332.03;5053506;28;20033;-74
2021/12/27 05:16:38;;;;;;;70.70;44.17;;;;;;;0.55;100.00;100291.19;5053585;28;20029;-74
2021/12/27 05:19:04;;;;;;;68.07;41.33;;;;;;;0.50;100.00;100305.22;5053327;28;20044;-74
2021/12/27 05:21:29;;;;;;;63.63;42.43;;;;;;;0.42;100.00;100328.38;5053433;28;20063;-74
2021/12/27 05:23:55;;;;;;;64.90;42.87;;;;;;;0.57;100.00;100333.72;5053360;28;20060;-74
2021/12/27 05:26:20;;;;;;;63.07;43.10;;;;;;;0.77;100.00;100335.22;5053362;28;20112;-74
2021/12/27 05:28:46;;;;;;;62.57;41.50;;;;;;;0.83;100.00;100338.97;5001778;28;20125;-74
2021/12/27 05:31:11;;;;;;;64.23;41.17;;;;;;;0.84;100.00;100323.84;5053535;28;20025;-74
2021/12/27 05:33:37;;;;;;;63.73;40.60;;;;;;;0.75;100.00;100329.13;5053455;28;20559;-74
2021/12/27 05:36:03;;;;;;;62.47;41.27;;;;;;;0.73;100.00;100325.56;5053352;28;20104;-74
2021/12/27 05:38:29;;;;;;;63.20;40.23;;;;;;;0.81;100.00;100333.78;5053137;28;20116;-74
2021/12/27 05:40:55;;;;;;;62.57;41.43;;;;;;;0.75;100.00;100335.88;5053012;28;20108;-74
2021/12/27 05:43:21;;;;;;;63.97;41.67;;;;;;;0.55;100.00;100294.63;5053518;28;20028;-74
2021/12/27 05:45:47;;;;;;;64.07;43.03;;;;;;;0.71;100.00;100311.91;5053347;28;20033;-74
2021/12/27 05:48:12;;;;;;;74.43;47.33;;;;;;;0.85;100.00;100306.91;5052783;28;20029;-74
2021/12/27 05:50:38;;;;;;;107.67;61.10;;;;;;;0.91;100.00;100323.53;5053210;28;20044;-74
2021/12/27 05:53:04;;;;;;;115.43;65.80;;;;;;;0.92;100.00;100325.28;5052647;28;20045;-74
2021/12/27 05:55:30;;;;;;;118.33;67.50;;;;;;;1.06;100.00;100328.84;5052009;28;20040;-74
2021/12/27 05:57:55;;;;;;;149.93;82.30;;;;;;;1.06;100.00;100308.50;5052795;28;20087;-74
2021/12/27 06:00:21;;;;;;;121.43;70.60;;;;;;;1.22;100.00;100324.84;5052806;28;20514;-74
2021/12/27 06:02:47;;;;;;;113.23;61.30;;;;;;;1.11;100.00;100314.78;5052755;28;20029;-74
2021/12/27 06:05:13;;;;;;;89.30;53.87;;;;;;;1.07;100.00;100324.63;5052568;28;20029;-74
2021/12/27 06:07:39;;;;;;;75.70;49.07;;;;;;;1.22;100.00;100338.47;5052409;28;20062;-74
2021/12/27 06:10:06;;;;;;;71.47;47.73;;;;;;;1.21;100.00;100340.88;5052514;28;20070;-74
2021/12/27 06:12:32;;;;;;;69.77;43.97;;;;;;;1.14;100.00;100334.47;5001265;28;20052;-74
2021/12/27 06:14:58;;;;;;;77.53;44.30;;;;;;;0.78;100.00;100339.50;5052499;28;20079;-74
2021/12/27 06:17:24;;;;;;;82.23;50.10;;;;;;;0.78;100.00;100336.97;5052391;28;20036;-74
2021/12/27 06:19:49;;;;;;;82.00;48.97;;;;;;;0.97;100.00;100348.50;5052329;28;20029;-74
2021/12/27 06:22:15;;;;;;;73.87;47.80;;;;;;;0.97;100.00;100325.59;5052164;28;20064;-74
2021/12/27 06:24:41;;;;;;;84.50;48.70;;;;;;;1.02;100.00;100324.28;5052231;28;20471;-74
2021/12/27 06:27:06;;;;;;;79.23;48.77;;;;;;;0.95;100.00;100304.31;5052312;28;20041;-74
2021/12/27 06:29:32;;;;;;;86.27;51.23;;;;;;;1.27;100.00;100352.38;5052280;28;20467;-74
2021/12/27 06:31:57;;;;;;;86.10;54.40;;;;;;;1.31;100.00;100357.69;5052159;28;20021;-74
2021/12/27 06:34:22;;;;;;;88.67;54.93;;;;;;;1.15;100.00;100353.13;5052082;28;20086;-74
2021/12/27 06:36:48;;;;;;;97.07;60.43;;;;;;;0.98;100.00;100352.81;5000503;28;20065;-74
2021/12/27 06:39:13;;;;;;;88.57;55.77;;;;;;;0.87;100.00;100353.69;5051840;28;20064;-74
2021/12/27 06:41:39;;;;;;;95.83;57.20;;;;;;;0.80;100.00;100348.13;5051860;28;20146;-74
2021/12/27 06:44:05;;;;;;;92.73;56.20;;;;;;;0.97;100.00;100361.19;5051752;28;20025;-74
2021/12/27 06:46:30;;;;;;;90.80;58.97;;;;;;;1.01;100.00;100358.13;5051770;28;20116;-74
2021/12/27 06:48:56;;;;;;;90.70;57.97;;;;;;;1.05;100.00;100347.41;5051672;28;20065;-74
2021/12/27 06:51:21;;;;;;;82.17;53.40;;;;;;;1.20;100.00;100351.84;5051644;28;20029;-74
2021/12/27 06:53:47;;;;;;;86.83;54.13;;;;;;;0.99;100.00;100307.94;5051742;28;20415;-75
2021/12/27 06:56:13;;;;;;;91.97;58.20;;;;;;;1.19;100.00;100333.13;5051618;28;20036;-74
2021/12/27 06:58:38;;;;;;;102.13;65.47;;;;;;;1.29;100.00;100349.94;5051613;28;20083;-74
2021/12/27 07:01:04;;;;;;;127.03;72.57;;;;;;;0.59;100.00;100257.66;5051423;28;20112;-74
2021/12/27 07:03:29;;;;;;;106.43;68.23;;;;;;;1.19;100.00;100357.69;5051854;28;20037;-74
2021/12/27 07:05:55;;;;;;;95.90;59.37;;;;;;;1.05;100.00;100339.78;5051375;28;20036;-74
2021/12/27 07:08:22;;;;;;;90.07;59.90;;;;;;;1.18;100.00;100331.38;5016088;28;20507;-74
2021/12/27 07:10:48;;;;;;;95.30;62.47;;;;;;;1.37;100.00;100348.84;5051399;28;20025;-74
2021/12/27 07:13:14;;;;;;;99.10;65.33;;;;;;;1.49;100.00;100355.59;5051466;28;20096;-74
2021/12/27 07:15:41;;;;;;;95.77;61.90;;;;;;;1.49;100.00;100359.00;5051249;28;20036;-74
2021/12/27 07:18:11;;;;;;;95.03;62.47;;;;;;;1.58;100.00;100340.97;5051304;28;20033;-74
2021/12/27 07:20:36;;;;;;;99.25;63.10;;;;;;;1.72;100.00;100347.03;5051162;28;20060;-74
2021/12/27 07:23:03;;;;;;;82.60;58.13;;;;;;;1.79;100.00;100346.69;5051715;28;20133;-74
2021/12/27 07:25:29;;;;;;;87.23;57.80;;;;;;;1.79;100.00;100336.50;5051322;28;20156;-74
2021/12/27 07:27:54;;;;;;;77.37;52.73;;;;;;;1.86;100.00;100337.81;5051159;28;20108;-74
2021/12/27 07:30:20;;;;;;;80.53;52.60;;;;;;;1.85;100.00;100339.47;5051171;28;20505;-74
2021/12/27 07:32:45;;;;;;;79.03;49.97;;;;;;;1.93;100.00;100334.91;5051162;28;20502;-75
2021/12/27 07:35:11;;;;;;;68.93;45.45;;;;;;;1.68;100.00;100276.34;5050847;28;20028;-75
2021/12/27 07:37:37;;;;;;;138.30;88.90;;;;;;;2.02;100.00;100332.09;5051119;28;20029;-74
2021/12/27 07:40:04;;;;;;;80.97;49.50;;;;;;;1.83;100.00;100309.59;5051096;28;20028;-74
2021/12/27 07:42:29;;;;;;;73.33;48.30;;;;;;;1.65;100.00;100330.44;5050838;28;20483;-74
2021/12/27 07:44:55;;;;;;;71.60;50.63;;;;;;;1.60;100.00;100311.44;5050898;28;20032;-74
2021/12/27 07:47:20;;;;;;;81.10;50.83;;;;;;;1.74;100.00;100326.00;5050875;28;20029;-74
2021/12/27 07:49:46;;;;;;;81.83;52.53;;;;;;;1.67;100.00;100293.28;5050860;28;20394;-74
2021/12/27 07:52:11;;;;;;;84.20;54.03;;;;;;;1.90;100.00;100307.56;5050801;28;20027;-74
2021/12/27 07:54:37;;;;;;;83.10;52.73;;;;;;;1.98;100.00;100337.78;5051020;28;20045;-74
2021/12/27 07:57:03;;;;;;;82.83;54.87;;;;;;;2.01;100.00;100322.72;5050852;28;20025;-74
2021/12/27 07:59:29;;;;;;;87.87;59.23;;;;;;;1.96;100.00;100330.03;5050867;28;20033;-74
2021/12/27 08:01:54;;;;;;;86.00;56.00;;;;;;;1.81;100.00;100312.03;5050830;28;20127;-74
2021/12/27 08:04:20;;;;;;;88.63;57.67;;;;;;;1.39;100.00;100230.28;5050704;28;20068;-74
2021/12/27 08:06:45;;;;;;;93.60;60.87;;;;;;;1.62;100.00;100279.34;5050631;28;20056;-74
2021/12/27 08:09:11;;;;;;;92.17;61.73;;;;;;;1.74;100.00;100275.09;5050791;28;20036;-74
2021/12/27 08:11:36;;;;;;;91.10;60.27;;;;;;;2.03;100.00;100319.50;5050799;28;20403;-74
2021/12/27 08:14:04;;;;;;;87.33;56.07;;;;;;;2.15;100.00;100318.56;5050774;28;20025;-74
2021/12/27 08:16:29;;;;;;;92.20;57.90;;;;;;;2.13;100.00;100307.38;5050628;28;20025;-74
2021/12/27 08:18:56;;;;;;;87.50;57.05;;;;;;;2.25;100.00;100306.53;5053128;28;20036;-74
2021/12/27 08:21:23;;;;;;;83.53;57.08;;;;;;;2.05;100.00;100251.72;5054693;28;20025;-74
2021/12/27 08:23:49;;;;;;;81.53;54.27;;;;;;;2.41;100.00;100305.03;5003556;28;20044;-73
2021/12/27 08:26:16;;;;;;;78.78;56.33;;;;;;;2.31;100.00;100305.22;5054614;28;20043;-73
2021/12/27 08:28:42;;;;;;;93.95;63.47;;;;;;;2.24;100.00;100264.06;5054438;28;20126;-74
2021/12/27 08:31:08;;;;;;;86.75;58.25;;;;;;;2.49;100.00;100306.41;5054327;28;20509;-73
2021/12/27 08:33:34;;;;;;;87.88;57.97;;;;;;;2.55;100.00;100303.41;5054217;28;20021;-74
2021/12/27 08:35:59;;;;;;;87.40;59.20;;;;;;;2.61;100.00;100301.28;5036348;28;20052;-73
2021/12/27 08:38:25;;;;;;;78.90;55.42;;;;;;;2.81;100.00;100306.81;5054129;28;20029;-74
2021/12/27 08:40:50;;;;;;;78.43;54.75;;;;;;;2.55;100.00;100258.41;5054487;28;20029;-73
2021/12/27 08:43:15;;;;;;;71.60;51.50;;;;;;;2.89;100.00;100282.66;5054129;28;20025;-73
2021/12/27 08:45:41;;;;;;;58.05;43.15;;;;;;;2.98;100.00;100288.38;5054071;28;20388;-73
2021/12/27 08:48:06;;;;;;;59.83;45.47;;;;;;;3.21;100.00;100300.03;5053770;28;20036;-74
2021/12/27 08:50:32;;;;;;;63.50;45.10;;;;;;;3.22;100.00;100283.94;5053934;28;20048;-73
2021/12/27 08:52:57;;;;;;;64.97;46.70;;;;;;;3.33;100.00;100282.06;5053894;28;20072;-74
2021/12/27 08:55:23;;;;;;;70.63;50.63;;;;;;;3.50;100.00;100277.13;5054095;28;20055;-74
2021/12/27 08:57:49;;;;;;;76.13;54.50;;;;;;;3.31;100.00;100229.19;5053996;28;20471;-74
2021/12/27 09:00:16;;;;;;;76.18;53.38;;;;;;;3.67;100.00;100278.19;5053818;28;20036;-74
2021/12/27 09:02:46;;;;;;;76.80;53.63;;;;;;;3.74;100.00;100267.56;5053709;28;20025;-74
2021/12/27 09:05:12;;;;;;;;;;;;;;;3.76;100.00;100272.75;5054173;28;20082;-74
2021/12/27 09:07:38;;;;;;;84.15;59.28;;;;;;;3.80;100.00;100267.94;5053631;28;20361;-74
2021/12/27 09:10:04;;;;;;;87.78;61.28;;;;;;;3.84;100.00;100269.00;5053860;28;20033;-74
2021/12/27 09:12:30;;;;;;;87.15;59.88;;;;;;;3.88;100.00;100258.19;5053574;28;20474;-74
2021/12/27 09:14:56;;;;;;;81.05;57.10;;;;;;;4.05;100.00;100254.09;5053669;28;20035;-74
2021/12/27 09:17:21;;;;;;;83.60;57.30;;;;;;;4.14;100.00;100240.97;5053391;28;20548;-74
2021/12/27 09:19:47;;;;;;;78.90;57.67;;;;;;;4.00;100.00;100192.50;5053632;28;20036;-74
2021/12/27 09:22:15;;;;;;;83.00;59.80;;;;;;;4.42;100.00;100237.47;5053362;28;20402;-74
2021/12/27 09:24:41;;;;;;;90.78;61.10;;;;;;;4.57;100.00;100224.69;5053244;28;20486;-74
2021/12/27 09:27:07;;;;;;;97.40;68.45;;;;;;;4.73;100.00;100213.66;5053225;28;20025;-74
2021/12/27 09:29:33;;;;;;;81.45;59.30;;;;;;;4.81;100.00;100220.06;5052176;28;20036;-74
2021/12/27 09:31:58;;;;;;;79.50;55.47;;;;;;;4.94;100.00;100219.09;5053139;28;20025;-75
2021/12/27 09:34:24;;;;;;;77.70;55.10;;;;;;;4.76;100.00;100175.47;5053410;28;20380;-74
2021/12/27 09:36:49;;;;;;;155.95;93.28;;;;;;;4.98;100.00;100211.66;5053324;28;20043;-74
2021/12/27 09:39:15;;;;;;;83.10;59.10;;;;;;;5.01;100.00;100201.59;5053194;28;20071;-74
2021/12/27 09:41:41;;;;;;;78.50;55.45;;;;;;;5.08;100.00;100214.72;5053142;28;20070;-74
2021/12/27 09:44:07;;;;;;;74.00;55.58;;;;;;;5.06;100.00;100217.22;5053027;28;20025;-74
2021/12/27 09:46:33;;;;;;;77.40;56.60;;;;;;;5.12;100.00;100217.56;5052931;28;20124;-74
2021/12/27 09:49:03;;;;;;;80.82;58.40;;;;;;;5.25;100.00;100221.66;5052885;28;20025;-74
2021/12/27 09:51:30;;;;;;;81.10;59.15;;;;;;;5.35;100.00;100213.66;5053142;28;20037;-74
2021/12/27 09:53:56;;;;;;;83.93;60.05;;;;;;;5.60;100.00;100214.97;5053034;28;20041;-74
2021/12/27 09:56:21;;;;;;;83.55;58.08;;;;;;;5.28;100.00;100139.94;5052870;28;20033;-74
2021/12/27 09:58:47;;;;;;;89.38;58.10;;;;;;;5.87;100.00;100209.53;5052796;28;20024;-74
2021/12/27 10:01:12;;;;;;;75.22;53.85;;;;;;;5.88;100.00;100210.41;5052651;28;20033;-74
2021/12/27 10:03:50;;;;;;;78.47;57.70;;;;;;;5.91;100.00;100187.53;5052876;28;20028;-74
2021/12/27 10:06:17;;;;;;;77.57;54.00;;;;;;;5.95;100.00;100185.16;5052514;28;20098;-74
2021/12/27 10:08:47;;;;;;;77.05;54.38;;;;;;;6.14;100.00;100178.44;5052506;28;20033;-74
2021/12/27 10:11:19;;;;;;;;;;;;;;;6.25;100.00;100182.41;5052945;28;20025;-75
2021/12/27 10:14:13;;;;;;;71.50;52.97;;;;;;;6.52;100.00;100192.28;5052362;28;20351;-75
2021/12/27 10:16:44;;;;;;;89.80;59.08;;;;;;;6.59;100.00;100178.97;5052367;28;20549;-75
2021/12/27 10:19:11;;;;;;;81.10;58.85;;;;;;;6.59;100.00;100173.84;5052522;28;20029;-74
2021/12/27 10:21:41;;;;;;;86.05;62.42;;;;;;;6.64;100.00;100177.50;5052243;28;20475;-75
2021/12/27 10:24:14;;;;;;;81.78;60.08;;;;;;;6.65;100.00;100173.22;5052116;28;20128;-75
2021/12/27 10:26:42;;;;;;;82.63;56.75;;;;;;;6.75;100.00;100172.88;5052428;28;20131;-75
2021/12/27 10:29:29;;;;;;;79.28;53.50;;;;;;;6.87;100.00;100161.44;5052317;28;20056;-75
2021/12/27 10:32:16;;;;;;;68.25;49.13;;;;;;;6.96;100.00;100167.84;5052201;28;20463;-75
2021/12/27 10:34:51;;;;;;;67.90;49.70;;;;;;;7.10;100.00;100163.38;5051901;28;20511;-75
2021/12/27 10:37:19;;;;;;;72.45;52.17;;;;;;;7.18;100.00;100166.28;5051989;28;20025;-75
2021/12/27 10:39:47;;;;;;;70.47;50.38;;;;;;;7.29;100.00;100161.66;5051938;28;20454;-75
2021/12/27 10:42:16;;;;;;;63.78;46.67;;;;;;;7.48;100.00;100165.91;5051645;28;20025;-75
2021/12/27 10:44:42;;;;;;;70.95;47.42;;;;;;;7.41;100.00;100144.22;5051866;28;20029;-75
2021/12/27 10:47:29;;;;;;;65.95;46.28;;;;;;;7.54;100.00;100155.00;5051739;28;20095;-75
2021/12/27 10:50:02;;;;;;;65.03;45.47;;;;;;;7.56;100.00;100149.16;5051865;28;20052;-75
2021/12/27 10:52:44;;;;;;;62.33;46.75;;;;;;;7.50;100.00;100124.88;5051674;28;20035;-75
2021/12/27 10:55:10;;;;;;;66.45;47.75;;;;;;;7.66;100.00;100129.00;5051620;28;20126;-76
2021/12/27 10:57:36;;;;;;;67.82;49.47;;;;;;;7.73;100.00;100134.47;5000115;28;20124;-76
2021/12/27 11:00:24;;;;;;;69.22;51.90;;;;;;;7.84;100.00;100134.03;5051550;28;20025;-76
2021/12/27 11:02:49;;;;;;;65.60;48.50;;;;;;;7.94;100.00;100139.63;5051695;28;20154;-76
2021/12/27 11:05:18;;;;;;;74.32;52.00;;;;;;;8.01;100.00;100120.22;5051538;28;20115;-76
2021/12/27 11:07:44;;;;;;;71.67;52.03;;;;;;;8.02;100.00;100110.81;5033436;28;20037;-76
2021/12/27 11:10:10;;;;;;;62.58;48.33;;;;;;;8.21;100.00;100112.44;5051645;28;20054;-75
2021/12/27 11:12:35;;;;;;;65.15;48.13;;;;;;;8.23;100.00;100113.38;5051814;28;20043;-76